createdAt,value
2023-03-17T00:01:55.050Z,76.73
2023-03-17T00:04:24.330Z,76.43
2023-03-17T00:06:52.893Z,77.10
2023-03-17T00:09:20.387Z,77.88
2023-03-17T00:11:47.144Z,76.46
2023-03-17T00:14:14.275Z,76.01
2023-03-17T00:16:43.197Z,76.38
2023-03-17T00:19:16.639Z,76.32
2023-03-17T00:21:43.937Z,77.13
2023-03-17T00:24:14.740Z,76.30
2023-03-17T00:26:42.587Z,76.01
2023-03-17T00:29:09.901Z,77.32
2023-03-17T00:31:38.214Z,76.29
2023-03-17T00:34:05.811Z,75.99
2023-03-17T00:36:33.686Z,75.56
2023-03-17T00:39:03.565Z,75.26
2023-03-17T00:41:30.527Z,75.55
2023-03-17T00:43:57.364Z,74.96
2023-03-17T00:46:36.163Z,75.55
2023-03-17T00:49:12.397Z,76.87
2023-03-17T00:51:40.300Z,77.54
2023-03-17T00:54:07.095Z,79.74
2023-03-17T00:56:33.769Z,80.60
2023-03-17T00:59:00.531Z,79.91
2023-03-17T01:01:27.187Z,79.35
2023-03-17T01:03:53.868Z,78.63
2023-03-17T01:06:20.689Z,78.00
2023-03-17T01:08:47.632Z,78.59
2023-03-17T01:11:19.377Z,77.64
2023-03-17T01:13:47.480Z,77.54
2023-03-17T01:16:15.626Z,77.37
2023-03-17T01:18:42.521Z,78.77
2023-03-17T01:21:09.544Z,78.08
2023-03-17T01:23:37.392Z,78.85
2023-03-17T01:26:04.633Z,77.94
2023-03-17T01:28:31.349Z,78.16
2023-03-17T01:30:57.999Z,78.82
2023-03-17T01:33:25.570Z,78.03
2023-03-17T01:35:52.820Z,78.08
2023-03-17T01:38:19.527Z,78.19
2023-03-17T01:40:49.923Z,78.14
2023-03-17T01:43:19.591Z,78.83
2023-03-17T01:46:17.269Z,77.24
2023-03-17T01:49:09.405Z,76.95
2023-03-17T01:51:43.352Z,76.58
2023-03-17T01:54:16.433Z,76.52
2023-03-17T01:56:47.315Z,77.11
2023-03-17T01:59:19.618Z,78.39
2023-03-17T02:01:49.397Z,77.73
2023-03-17T02:04:18.101Z,76.88
2023-03-17T02:06:57.549Z,77.10
2023-03-17T02:09:27.148Z,77.27
2023-03-17T02:11:54.470Z,77.00
2023-03-17T02:14:21.615Z,77.39
2023-03-17T02:16:48.604Z,76.30
2023-03-17T02:19:16.237Z,76.39
2023-03-17T02:21:58.051Z,76.54
2023-03-17T02:24:30.939Z,77.34
2023-03-17T02:27:03.567Z,77.14
2023-03-17T02:29:34.066Z,77.55
2023-03-17T02:32:01.474Z,77.62
2023-03-17T02:34:31.471Z,77.34
2023-03-17T02:36:59.154Z,77.75
2023-03-17T02:39:26.126Z,77.19
2023-03-17T02:41:53.125Z,76.66
2023-03-17T02:44:19.971Z,77.34
2023-03-17T02:46:46.988Z,77.24
2023-03-17T02:49:14.207Z,77.48
2023-03-17T02:51:41.004Z,78.14
2023-03-17T02:54:07.905Z,78.98
2023-03-17T02:56:34.593Z,77.39
2023-03-17T02:59:01.241Z,77.64
2023-03-17T03:01:29.376Z,77.53
2023-03-17T03:03:56.113Z,77.28
2023-03-17T03:06:23.915Z,77.29
2023-03-17T03:08:51.277Z,77.24
2023-03-17T03:11:18.448Z,77.79
2023-03-17T03:13:45.438Z,77.54
2023-03-17T03:16:12.635Z,78.62
2023-03-17T03:18:39.310Z,77.62
2023-03-17T03:21:06.134Z,77.87
2023-03-17T03:23:32.802Z,77.65
2023-03-17T03:25:59.521Z,77.58
2023-03-17T03:28:26.134Z,77.49
2023-03-17T03:30:52.770Z,76.86
2023-03-17T03:33:19.430Z,78.63
2023-03-17T03:35:46.126Z,78.43
2023-03-17T03:38:13.305Z,77.44
2023-03-17T03:40:40.112Z,77.23
2023-03-17T03:43:16.268Z,77.84
2023-03-17T03:45:48.912Z,77.72
2023-03-17T03:48:15.693Z,77.45
2023-03-17T03:50:42.358Z,76.85
2023-03-17T03:53:08.952Z,77.54
2023-03-17T03:55:35.706Z,76.92
2023-03-17T03:58:02.329Z,77.42
2023-03-17T04:00:29.355Z,77.91
2023-03-17T04:02:56.229Z,77.88
2023-03-17T04:05:23.058Z,77.13
2023-03-17T04:07:50.083Z,76.54
2023-03-17T04:10:17.269Z,76.21
2023-03-17T04:12:44.037Z,76.39
2023-03-17T04:15:15.413Z,77.37
2023-03-17T04:17:42.467Z,77.71
2023-03-17T04:20:10.748Z,76.82
2023-03-17T04:22:37.334Z,77.19
2023-03-17T04:25:04.120Z,76.99
2023-03-17T04:27:30.996Z,76.58
2023-03-17T04:29:57.634Z,76.44
2023-03-17T04:32:27.006Z,77.56
2023-03-17T04:34:53.925Z,76.56
2023-03-17T04:37:20.611Z,78.27
2023-03-17T04:39:47.438Z,77.98
2023-03-17T04:42:14.311Z,76.73
2023-03-17T04:44:41.219Z,77.43
2023-03-17T04:47:07.821Z,77.15
2023-03-17T04:49:34.509Z,77.41
2023-03-17T04:52:01.483Z,77.32
2023-03-17T04:54:28.165Z,76.91
2023-03-17T04:56:54.729Z,77.02
2023-03-17T04:59:21.783Z,75.93
2023-03-17T05:01:48.451Z,76.90
2023-03-17T05:04:28.768Z,76.68
2023-03-17T05:06:58.278Z,76.18
2023-03-17T05:09:25.716Z,75.49
2023-03-17T05:11:52.529Z,75.44
2023-03-17T05:14:19.173Z,75.51
2023-03-17T05:16:49.429Z,75.69
2023-03-17T05:19:17.421Z,74.58
2023-03-17T05:21:44.179Z,75.94
2023-03-17T05:24:11.677Z,75.68
2023-03-17T05:26:38.412Z,75.84
2023-03-17T05:29:05.397Z,74.85
2023-03-17T05:31:32.306Z,76.50
2023-03-17T05:33:59.578Z,75.64
2023-03-17T05:36:26.249Z,76.47
2023-03-17T05:38:52.952Z,75.71
2023-03-17T05:41:19.870Z,76.05
2023-03-17T05:43:46.938Z,75.47
2023-03-17T05:46:13.798Z,75.91
2023-03-17T05:48:40.765Z,76.20
2023-03-17T05:51:07.841Z,76.91
2023-03-17T05:53:36.197Z,76.39
2023-03-17T05:56:03.846Z,76.17
2023-03-17T05:58:30.781Z,76.68
2023-03-17T06:00:58.280Z,76.34
2023-03-17T06:03:25.408Z,77.12
2023-03-17T06:05:52.303Z,78.61
2023-03-17T06:08:19.562Z,78.00
2023-03-17T06:10:47.297Z,76.75
2023-03-17T06:13:14.201Z,77.18
2023-03-17T06:15:42.503Z,77.92
2023-03-17T06:18:09.442Z,77.24
2023-03-17T06:20:36.728Z,77.01
2023-03-17T06:23:05.855Z,76.23
2023-03-17T06:25:34.953Z,77.09
2023-03-17T06:28:03.792Z,77.58
2023-03-17T06:30:32.959Z,76.94
2023-03-17T06:33:01.118Z,77.06
2023-03-17T06:35:28.489Z,76.34
2023-03-17T06:37:55.430Z,77.38
2023-03-17T06:40:22.262Z,76.51
2023-03-17T06:42:49.309Z,76.52
2023-03-17T06:45:16.330Z,75.93
2023-03-17T06:47:43.553Z,75.54
2023-03-17T06:50:12.373Z,75.81
2023-03-17T06:52:40.289Z,76.84
2023-03-17T06:55:09.341Z,76.12
2023-03-17T06:57:36.696Z,77.45
2023-03-17T07:00:06.655Z,76.41
2023-03-17T07:02:34.009Z,76.72
2023-03-17T07:05:01.147Z,77.29
2023-03-17T07:07:31.615Z,77.41
2023-03-17T07:09:58.457Z,76.29
2023-03-17T07:12:25.049Z,77.00
2023-03-17T07:14:52.027Z,76.80
2023-03-17T07:17:19.686Z,76.75
2023-03-17T07:19:46.392Z,75.93
2023-03-17T07:22:13.076Z,76.82
2023-03-17T07:24:41.860Z,76.63
2023-03-17T07:27:08.771Z,77.09
2023-03-17T07:29:35.977Z,77.47
2023-03-17T07:32:05.317Z,77.44
2023-03-17T07:34:32.429Z,77.09
2023-03-17T07:36:59.440Z,78.01
2023-03-17T07:39:26.125Z,78.04
2023-03-17T07:41:55.283Z,77.43
2023-03-17T07:44:23.402Z,77.37
2023-03-17T07:46:54.424Z,77.03
2023-03-17T07:49:38.224Z,77.67
2023-03-17T07:52:09.053Z,78.02
2023-03-17T07:54:37.073Z,78.38
2023-03-17T07:57:04.600Z,78.09
2023-03-17T07:59:31.623Z,77.14
2023-03-17T08:01:59.699Z,77.56
2023-03-17T08:04:27.600Z,76.98
2023-03-17T08:06:54.608Z,78.21
2023-03-17T08:09:24.466Z,76.72
2023-03-17T08:11:51.198Z,76.84
2023-03-17T08:14:17.846Z,77.11
2023-03-17T08:16:44.621Z,76.42
2023-03-17T08:19:11.755Z,75.97
2023-03-17T08:21:38.439Z,75.91
2023-03-17T08:24:05.395Z,76.27
2023-03-17T08:26:32.288Z,76.06
2023-03-17T08:28:59.133Z,76.10
2023-03-17T08:31:26.083Z,76.35
2023-03-17T08:33:54.502Z,76.10
2023-03-17T08:36:21.701Z,75.88
2023-03-17T08:38:48.516Z,76.14
2023-03-17T08:41:18.833Z,75.77
2023-03-17T08:43:46.934Z,77.31
2023-03-17T08:46:19.439Z,77.35
2023-03-17T08:48:48.220Z,77.28
2023-03-17T08:51:18.425Z,77.52
2023-03-17T08:53:46.403Z,77.47
2023-03-17T08:56:14.710Z,77.35
2023-03-17T08:58:42.656Z,76.34
2023-03-17T09:01:10.771Z,77.21
2023-03-17T09:03:39.631Z,76.76
2023-03-17T09:06:08.079Z,78.87
2023-03-17T09:08:39.935Z,78.39
2023-03-17T09:11:10.703Z,77.63
2023-03-17T09:13:39.089Z,77.53
2023-03-17T09:16:08.910Z,76.48
2023-03-17T09:18:35.909Z,76.40
2023-03-17T09:21:03.674Z,75.42
2023-03-17T09:23:30.984Z,75.95
2023-03-17T09:25:57.908Z,76.03
2023-03-17T09:28:24.786Z,75.87
2023-03-17T09:30:51.756Z,76.03
2023-03-17T09:33:19.032Z,76.12
2023-03-17T09:35:45.637Z,76.65
2023-03-17T09:38:12.901Z,76.36
2023-03-17T09:41:08.428Z,76.53
2023-03-17T09:43:57.396Z,75.77
2023-03-17T09:46:42.726Z,76.18
2023-03-17T09:49:14.721Z,76.02
2023-03-17T09:51:45.060Z,76.23
2023-03-17T09:54:18.403Z,75.60
2023-03-17T09:56:50.731Z,75.88
2023-03-17T09:59:29.519Z,75.97
2023-03-17T10:01:56.962Z,76.38
2023-03-17T10:04:24.373Z,77.14
2023-03-17T10:06:52.657Z,76.59
2023-03-17T10:09:41.904Z,76.29
2023-03-17T10:12:47.447Z,75.26
2023-03-17T10:15:36.470Z,75.78
2023-03-17T10:18:12.757Z,77.30
2023-03-17T10:20:52.889Z,77.91
2023-03-17T10:23:26.208Z,77.13
2023-03-17T10:25:56.722Z,76.55
2023-03-17T10:28:28.917Z,77.01
2023-03-17T10:31:18.507Z,76.84
2023-03-17T10:33:50.018Z,76.82
2023-03-17T10:36:32.528Z,76.48
2023-03-17T10:39:00.120Z,76.21
2023-03-17T10:41:30.251Z,76.48
2023-03-17T10:43:58.341Z,76.03
2023-03-17T10:46:27.136Z,75.31
2023-03-17T10:49:02.506Z,75.55
2023-03-17T10:51:35.753Z,75.16
2023-03-17T10:54:09.566Z,75.61
2023-03-17T10:56:39.898Z,75.81
2023-03-17T10:59:14.897Z,75.82
2023-03-17T11:01:58.351Z,76.27
2023-03-17T11:04:42.572Z,75.86
2023-03-17T11:07:21.840Z,76.88
2023-03-17T11:09:50.762Z,76.60
2023-03-17T11:12:36.616Z,76.82
2023-03-17T11:15:07.984Z,76.96
2023-03-17T11:17:46.447Z,77.11
2023-03-17T11:20:20.944Z,76.95
2023-03-17T11:23:17.876Z,76.70
2023-03-17T11:25:49.882Z,76.17
2023-03-17T11:28:21.293Z,76.14
2023-03-17T11:31:08.474Z,76.04
2023-03-17T11:34:02.248Z,75.22
2023-03-17T11:37:10.778Z,75.10
2023-03-17T11:39:58.057Z,75.62
2023-03-17T11:42:36.441Z,75.21
2023-03-17T11:45:16.821Z,75.25
2023-03-17T11:47:55.444Z,74.97
2023-03-17T11:50:39.475Z,74.74
2023-03-17T11:53:20.046Z,74.38
2023-03-17T11:56:05.582Z,75.59
2023-03-17T11:58:38.695Z,75.01
2023-03-17T12:01:09.096Z,74.87
2023-03-17T12:03:43.328Z,74.97
2023-03-17T12:06:18.226Z,74.46
2023-03-17T12:08:58.066Z,74.80
2023-03-17T12:11:28.977Z,74.38
2023-03-17T12:14:07.675Z,75.19
2023-03-17T12:16:40.197Z,75.00
2023-03-17T12:19:22.637Z,74.50
2023-03-17T12:22:26.638Z,74.00
2023-03-17T12:25:02.804Z,74.25
2023-03-17T12:27:34.005Z,74.44
2023-03-17T12:30:08.215Z,74.87
2023-03-17T12:32:45.890Z,76.01
2023-03-17T12:35:29.471Z,77.38
2023-03-17T12:38:01.211Z,76.63
2023-03-17T12:41:15.259Z,76.28
2023-03-17T12:43:58.587Z,75.35
2023-03-17T12:46:42.758Z,75.62
2023-03-17T12:49:27.041Z,76.33
2023-03-17T12:52:33.781Z,77.08
2023-03-17T12:55:04.237Z,76.92
2023-03-17T12:57:40.606Z,76.47
2023-03-17T13:00:20.510Z,76.54
2023-03-17T13:03:09.872Z,76.27
2023-03-17T13:05:38.194Z,76.31
2023-03-17T13:08:10.845Z,75.94
2023-03-17T13:10:51.227Z,75.08
2023-03-17T13:13:54.996Z,75.66
2023-03-17T13:16:39.499Z,75.87
2023-03-17T13:19:20.841Z,76.49
2023-03-17T13:22:00.460Z,77.12
2023-03-17T13:24:49.395Z,78.60
2023-03-17T13:27:30.977Z,78.05
2023-03-17T13:30:36.839Z,77.40
2023-03-17T13:33:15.153Z,76.67
2023-03-17T13:35:48.904Z,77.78
2023-03-17T13:38:43.345Z,76.46
2023-03-17T13:41:28.176Z,77.32
2023-03-17T13:44:15.314Z,76.54
2023-03-17T13:46:47.707Z,76.04
2023-03-17T13:49:15.113Z,76.49
2023-03-17T13:51:52.734Z,75.74
2023-03-17T13:54:28.288Z,75.38
2023-03-17T13:56:56.546Z,75.40
2023-03-17T13:59:35.716Z,74.74
2023-03-17T14:02:18.849Z,74.65
2023-03-17T14:04:58.186Z,74.75
2023-03-17T14:07:29.816Z,74.40
2023-03-17T14:10:03.021Z,75.24
2023-03-17T14:12:42.480Z,75.32
2023-03-17T14:15:20.657Z,74.67
2023-03-17T14:18:04.538Z,76.52
2023-03-17T14:20:31.417Z,77.01
2023-03-17T14:23:03.351Z,76.35
2023-03-17T14:25:39.522Z,75.77
2023-03-17T14:28:11.198Z,76.02
2023-03-17T14:30:38.675Z,76.66
2023-03-17T14:33:16.095Z,77.18
2023-03-17T14:35:43.617Z,77.25
2023-03-17T14:38:19.891Z,78.16
2023-03-17T14:40:47.426Z,79.40
2023-03-17T14:43:15.559Z,79.76
2023-03-17T14:45:50.343Z,78.78
2023-03-17T14:48:23.636Z,78.24
2023-03-17T14:50:56.275Z,78.70
2023-03-17T14:53:24.256Z,78.63
2023-03-17T14:55:52.747Z,77.21
2023-03-17T14:58:26.436Z,77.07
2023-03-17T15:01:17.950Z,78.90
2023-03-17T15:04:07.050Z,77.94
2023-03-17T15:06:37.435Z,76.81
2023-03-17T15:09:17.133Z,76.58
2023-03-17T15:11:44.586Z,75.85
2023-03-17T15:14:31.844Z,75.26
2023-03-17T15:17:01.910Z,76.14
2023-03-17T15:19:40.313Z,77.07
2023-03-17T15:22:26.060Z,76.36
2023-03-17T15:24:59.335Z,76.39
2023-03-17T15:27:26.246Z,78.20
2023-03-17T15:29:52.841Z,77.46
2023-03-17T15:32:23.452Z,79.96
2023-03-17T15:34:53.041Z,80.81
2023-03-17T15:37:29.619Z,80.65
2023-03-17T15:39:57.570Z,80.47
2023-03-17T15:42:32.734Z,80.01
2023-03-17T15:45:03.701Z,80.14
2023-03-17T15:47:36.765Z,79.33
2023-03-17T15:50:14.208Z,81.29
2023-03-17T15:52:42.806Z,80.38
2023-03-17T15:55:17.114Z,80.64
2023-03-17T15:57:53.820Z,80.86
2023-03-17T16:00:23.130Z,80.20
2023-03-17T16:02:56.248Z,78.86
2023-03-17T16:05:26.573Z,79.32
2023-03-17T16:07:54.349Z,78.22
2023-03-17T16:10:26.806Z,77.84
2023-03-17T16:12:57.231Z,78.48
2023-03-17T16:15:30.790Z,77.97
2023-03-17T16:18:02.460Z,78.83
2023-03-17T16:20:37.931Z,80.02
2023-03-17T16:23:08.912Z,78.97
2023-03-17T16:25:36.760Z,79.22
2023-03-17T16:28:13.874Z,82.89
2023-03-17T16:30:40.911Z,82.12
2023-03-17T16:33:23.441Z,80.83
2023-03-17T16:35:55.886Z,80.83
2023-03-17T16:38:28.231Z,80.47
2023-03-17T16:40:58.882Z,80.20
2023-03-17T16:43:29.271Z,80.20
2023-03-17T16:45:58.586Z,80.03
2023-03-17T16:48:26.451Z,79.99
2023-03-17T16:50:56.470Z,79.98
2023-03-17T16:53:24.387Z,79.01
2023-03-17T16:55:51.806Z,78.99
2023-03-17T16:58:24.662Z,79.74
2023-03-17T17:00:55.755Z,79.57
2023-03-17T17:03:22.693Z,79.18
2023-03-17T17:05:49.289Z,78.43
2023-03-17T17:08:16.227Z,78.96
2023-03-17T17:10:42.860Z,78.67
2023-03-17T17:13:11.833Z,78.61
2023-03-17T17:15:39.738Z,78.19
2023-03-17T17:18:21.875Z,78.31
2023-03-17T17:20:49.378Z,78.57
2023-03-17T17:23:20.509Z,77.58
2023-03-17T17:25:47.905Z,78.02
2023-03-17T17:28:17.123Z,77.98
2023-03-17T17:30:46.279Z,79.17
2023-03-17T17:33:12.946Z,78.07
2023-03-17T17:35:40.321Z,77.46
2023-03-17T17:38:16.507Z,77.37
2023-03-17T17:40:43.246Z,77.47
2023-03-17T17:43:10.204Z,76.96
2023-03-17T17:45:37.063Z,77.09
2023-03-17T17:48:04.005Z,76.77
2023-03-17T17:50:31.394Z,76.66
2023-03-17T17:53:04.941Z,78.10
2023-03-17T17:55:33.789Z,78.21
2023-03-17T17:58:00.592Z,77.02
2023-03-17T18:00:27.564Z,77.22
2023-03-17T18:02:54.221Z,76.98
2023-03-17T18:05:20.950Z,78.49
2023-03-17T18:07:47.697Z,78.44
2023-03-17T18:10:20.644Z,81.11
2023-03-17T18:12:47.334Z,80.00
2023-03-17T18:15:13.991Z,79.58
2023-03-17T18:17:41.640Z,77.94
2023-03-17T18:20:10.832Z,78.13
2023-03-17T18:22:38.122Z,78.21
2023-03-17T18:25:09.741Z,77.38
2023-03-17T18:27:39.642Z,77.41
2023-03-17T18:30:10.534Z,76.97
2023-03-17T18:32:38.034Z,77.14
2023-03-17T18:35:09.236Z,76.32
2023-03-17T18:37:37.041Z,77.37
2023-03-17T18:40:14.467Z,76.46
2023-03-17T18:42:43.174Z,78.29
2023-03-17T18:45:11.717Z,77.17
2023-03-17T18:47:39.073Z,78.13
2023-03-17T18:50:08.080Z,79.40
2023-03-17T18:52:38.416Z,79.59
2023-03-17T18:55:06.753Z,80.37
2023-03-17T18:57:33.766Z,78.77
2023-03-17T19:00:00.553Z,78.51
2023-03-17T19:02:27.191Z,80.42
2023-03-17T19:04:53.857Z,78.92
2023-03-17T19:07:22.310Z,79.10
2023-03-17T19:09:49.318Z,78.60
2023-03-17T19:12:15.986Z,78.14
2023-03-17T19:14:42.745Z,80.37
2023-03-17T19:17:09.375Z,80.70
2023-03-17T19:19:36.808Z,80.93
2023-03-17T19:22:04.084Z,79.14
2023-03-17T19:24:32.148Z,79.72
2023-03-17T19:26:58.850Z,78.39
2023-03-17T19:29:27.889Z,79.76
2023-03-17T19:31:54.636Z,80.58
2023-03-17T19:34:21.453Z,79.83
2023-03-17T19:36:48.259Z,79.53
2023-03-17T19:39:15.554Z,79.50
2023-03-17T19:41:42.375Z,79.88
2023-03-17T19:44:09.081Z,78.89
2023-03-17T19:46:37.186Z,82.10
2023-03-17T19:49:04.965Z,81.24
2023-03-17T19:51:33.260Z,80.96
2023-03-17T19:54:00.195Z,80.16
2023-03-17T19:56:28.022Z,79.41
2023-03-17T19:58:55.480Z,81.37
2023-03-17T20:01:23.054Z,80.77
2023-03-17T20:03:49.888Z,80.46
2023-03-17T20:06:16.854Z,79.75
2023-03-17T20:08:44.017Z,80.04
2023-03-17T20:11:12.407Z,80.05
2023-03-17T20:13:39.766Z,79.59
2023-03-17T20:16:08.338Z,79.06
2023-03-17T20:18:36.003Z,79.26
2023-03-17T20:21:05.918Z,78.91
2023-03-17T20:23:32.906Z,79.91
2023-03-17T20:25:59.608Z,79.50
2023-03-17T20:28:27.275Z,79.22
2023-03-17T20:30:59.779Z,79.60
2023-03-17T20:33:26.670Z,79.38
2023-03-17T20:35:53.463Z,80.26
2023-03-17T20:38:21.280Z,80.44
2023-03-17T20:40:48.108Z,80.36
2023-03-17T20:43:14.852Z,80.51
2023-03-17T20:45:41.668Z,79.77
2023-03-17T20:48:10.769Z,79.61
2023-03-17T20:50:39.148Z,79.15
2023-03-17T20:53:05.764Z,78.53
2023-03-17T20:55:32.573Z,79.02
2023-03-17T20:57:59.853Z,79.37
2023-03-17T21:00:30.281Z,82.23
2023-03-17T21:02:57.311Z,80.98
2023-03-17T21:05:26.261Z,79.36
2023-03-17T21:07:56.627Z,80.34
2023-03-17T21:10:23.865Z,79.77
2023-03-17T21:12:50.620Z,79.68
2023-03-17T21:15:18.237Z,82.59
2023-03-17T21:17:44.985Z,82.94
2023-03-17T21:20:12.609Z,81.52
2023-03-17T21:22:40.996Z,82.37
2023-03-17T21:25:09.881Z,81.60
2023-03-17T21:27:40.566Z,80.78
2023-03-17T21:30:12.020Z,80.74
2023-03-17T21:32:40.417Z,79.50
2023-03-17T21:35:08.065Z,79.01
2023-03-17T21:37:35.259Z,78.74
2023-03-17T21:40:02.059Z,80.15
2023-03-17T21:42:29.250Z,78.70
2023-03-17T21:44:55.925Z,78.88
2023-03-17T21:47:22.590Z,79.59
2023-03-17T21:49:49.214Z,79.39
2023-03-17T21:52:16.364Z,79.21
2023-03-17T21:54:43.063Z,78.92
2023-03-17T21:57:11.791Z,79.46
2023-03-17T21:59:38.681Z,81.10
2023-03-17T22:02:06.140Z,80.55
2023-03-17T22:04:32.762Z,79.52
2023-03-17T22:06:59.598Z,78.83
2023-03-17T22:09:26.474Z,79.38
2023-03-17T22:11:53.283Z,81.34
2023-03-17T22:14:20.756Z,83.43
2023-03-17T22:16:49.346Z,83.46
2023-03-17T22:19:18.713Z,82.92
2023-03-17T22:21:46.982Z,83.26
2023-03-17T22:24:13.774Z,85.66
2023-03-17T22:26:40.498Z,85.23
2023-03-17T22:29:07.581Z,84.30
2023-03-17T22:31:37.185Z,84.23
2023-03-17T22:34:04.609Z,83.10
2023-03-17T22:36:31.285Z,85.08
2023-03-17T22:38:59.074Z,85.75
2023-03-17T22:41:28.377Z,86.33
2023-03-17T22:43:55.147Z,86.90
2023-03-17T22:46:22.214Z,87.07
2023-03-17T22:48:49.280Z,87.39
2023-03-17T22:51:20.787Z,88.26
2023-03-17T22:53:47.983Z,88.52
2023-03-17T22:56:16.482Z,87.85
2023-03-17T22:58:44.414Z,87.60
2023-03-17T23:01:13.461Z,86.48
2023-03-17T23:03:40.913Z,86.41
2023-03-17T23:06:08.641Z,85.55
2023-03-17T23:08:37.293Z,84.41
2023-03-17T23:11:11.684Z,85.00
2023-03-17T23:13:41.610Z,85.76
2023-03-17T23:16:09.518Z,86.09
2023-03-17T23:18:36.194Z,84.68
2023-03-17T23:21:03.883Z,84.45
2023-03-17T23:23:30.808Z,83.54
2023-03-17T23:25:57.896Z,82.74
2023-03-17T23:28:25.075Z,81.60
2023-03-17T23:30:52.468Z,82.18
2023-03-17T23:33:21.716Z,80.65
2023-03-17T23:35:50.272Z,81.84
2023-03-17T23:38:19.563Z,81.42
2023-03-17T23:40:46.770Z,81.80
2023-03-17T23:43:13.625Z,81.20
2023-03-17T23:45:41.504Z,80.82
2023-03-17T23:48:10.020Z,80.60
2023-03-17T23:50:37.157Z,82.39
2023-03-17T23:53:03.928Z,83.32
2023-03-17T23:55:30.649Z,83.32
2023-03-17T23:57:57.317Z,82.35
